sensor_id;sensor_type;location;lat;lon;timestamp;pressure;altitude;pressure_sealevel;temperature;humidity
36248;BME280;22287;50.824;5.644;2023-01-27T00:00:51;101513.91;;;3.85;83.71
36248;BME280;22287;50.824;5.644;2023-01-27T00:03:19;101512.66;;;3.92;82.86
36248;BME280;22287;50.824;5.644;2023-01-27T00:05:46;101513.69;;;3.90;82.50
36248;BME280;22287;50.824;5.644;2023-01-27T00:08:14;101517.09;;;3.93;83.25
36248;BME280;22287;50.824;5.644;2023-01-27T00:10:41;101512.09;;;3.86;83.85
36248;BME280;22287;50.824;5.644;2023-01-27T00:13:13;101511.22;;;3.85;82.53
36248;BME280;22287;50.824;5.644;2023-01-27T00:15:57;101511.03;;;3.70;83.46
36248;BME280;22287;50.824;5.644;2023-01-27T00:18:28;101505.97;;;3.64;84.41
36248;BME280;22287;50.824;5.644;2023-01-27T00:20:54;101509.97;;;4.12;82.99
36248;BME280;22287;50.824;5.644;2023-01-27T00:23:39;101516.47;;;4.07;82.54
36248;BME280;22287;50.824;5.644;2023-01-27T00:26:25;101513.25;;;3.80;82.70
36248;BME280;22287;50.824;5.644;2023-01-27T00:28:51;101520.03;;;3.87;83.22
36248;BME280;22287;50.824;5.644;2023-01-27T00:31:18;101511.75;;;3.73;83.31
36248;BME280;22287;50.824;5.644;2023-01-27T00:34:04;101512.38;;;3.80;83.43
36248;BME280;22287;50.824;5.644;2023-01-27T00:36:39;101509.28;;;3.69;83.94
36248;BME280;22287;50.824;5.644;2023-01-27T00:39:07;101510.13;;;3.50;84.43
36248;BME280;22287;50.824;5.644;2023-01-27T00:41:35;101510.22;;;3.68;84.32
36248;BME280;22287;50.824;5.644;2023-01-27T00:44:03;101515.25;;;3.75;83.13
36248;BME280;22287;50.824;5.644;2023-01-27T00:46:39;101520.06;;;3.67;83.36
36248;BME280;22287;50.824;5.644;2023-01-27T00:49:08;101515.81;;;3.82;82.92
36248;BME280;22287;50.824;5.644;2023-01-27T00:51:35;101523.47;;;3.71;83.18
36248;BME280;22287;50.824;5.644;2023-01-27T00:54:02;101519.94;;;4.09;82.43
36248;BME280;22287;50.824;5.644;2023-01-27T00:56:30;101512.00;;;4.07;82.72
36248;BME280;22287;50.824;5.644;2023-01-27T00:58:58;101512.56;;;3.75;82.45
36248;BME280;22287;50.824;5.644;2023-01-27T01:01:25;101507.22;;;3.55;83.53
36248;BME280;22287;50.824;5.644;2023-01-27T01:03:52;101517.72;;;3.80;83.48
36248;BME280;22287;50.824;5.644;2023-01-27T01:06:20;101516.59;;;4.04;82.37
36248;BME280;22287;50.824;5.644;2023-01-27T01:08:47;101516.66;;;3.64;83.44
36248;BME280;22287;50.824;5.644;2023-01-27T01:11:15;101519.72;;;3.95;82.17
36248;BME280;22287;50.824;5.644;2023-01-27T01:13:43;101523.28;;;4.51;80.56
36248;BME280;22287;50.824;5.644;2023-01-27T01:16:16;101516.19;;;4.50;79.59
36248;BME280;22287;50.824;5.644;2023-01-27T01:18:44;101522.44;;;4.32;80.44
36248;BME280;22287;50.824;5.644;2023-01-27T01:21:11;101528.00;;;3.89;81.49
36248;BME280;22287;50.824;5.644;2023-01-27T01:23:42;101526.38;;;4.05;81.87
36248;BME280;22287;50.824;5.644;2023-01-27T01:26:10;101538.44;;;3.95;82.35
36248;BME280;22287;50.824;5.644;2023-01-27T01:28:52;101530.09;;;4.01;81.55
36248;BME280;22287;50.824;5.644;2023-01-27T01:31:19;101529.16;;;3.83;82.01
36248;BME280;22287;50.824;5.644;2023-01-27T01:33:48;101532.25;;;4.32;81.55
36248;BME280;22287;50.824;5.644;2023-01-27T01:36:17;101538.72;;;4.07;80.69
36248;BME280;22287;50.824;5.644;2023-01-27T01:38:46;101535.28;;;4.24;79.91
36248;BME280;22287;50.824;5.644;2023-01-27T01:41:16;101543.97;;;4.29;79.25
36248;BME280;22287;50.824;5.644;2023-01-27T01:43:43;101546.50;;;4.13;79.98
36248;BME280;22287;50.824;5.644;2023-01-27T01:46:11;101539.34;;;4.51;79.01
36248;BME280;22287;50.824;5.644;2023-01-27T01:51:50;101539.97;;;3.80;80.26
36248;BME280;22287;50.824;5.644;2023-01-27T01:54:24;101548.72;;;3.64;81.18
36248;BME280;22287;50.824;5.644;2023-01-27T01:57:48;101551.41;;;3.84;80.55
36248;BME280;22287;50.824;5.644;2023-01-27T02:00:09;101534.75;;;3.77;80.29
36248;BME280;22287;50.824;5.644;2023-01-27T02:02:39;101534.81;;;3.96;79.76
36248;BME280;22287;50.824;5.644;2023-01-27T02:05:13;101539.56;;;3.89;80.37
36248;BME280;22287;50.824;5.644;2023-01-27T02:07:46;101543.38;;;3.84;80.38
36248;BME280;22287;50.824;5.644;2023-01-27T02:10:17;101548.38;;;3.91;78.97
36248;BME280;22287;50.824;5.644;2023-01-27T02:12:44;101546.06;;;3.84;79.48
36248;BME280;22287;50.824;5.644;2023-01-27T02:15:11;101545.09;;;3.85;80.44
36248;BME280;22287;50.824;5.644;2023-01-27T02:17:38;101541.13;;;3.75;80.20
36248;BME280;22287;50.824;5.644;2023-01-27T02:20:18;101540.56;;;3.87;79.95
36248;BME280;22287;50.824;5.644;2023-01-27T02:28:08;101538.56;;;3.92;79.80
36248;BME280;22287;50.824;5.644;2023-01-27T02:30:35;101535.88;;;3.51;80.58
36248;BME280;22287;50.824;5.644;2023-01-27T02:33:09;101535.28;;;3.65;79.36
36248;BME280;22287;50.824;5.644;2023-01-27T02:38:14;101540.91;;;4.18;78.99
36248;BME280;22287;50.824;5.644;2023-01-27T02:40:43;101536.44;;;3.80;79.86
36248;BME280;22287;50.824;5.644;2023-01-27T02:43:11;101539.97;;;3.60;80.81
36248;BME280;22287;50.824;5.644;2023-01-27T02:45:38;101542.97;;;3.52;80.62
36248;BME280;22287;50.824;5.644;2023-01-27T02:48:05;101543.31;;;3.65;80.12
36248;BME280;22287;50.824;5.644;2023-01-27T02:50:32;101538.31;;;3.78;79.24
36248;BME280;22287;50.824;5.644;2023-01-27T02:52:59;101532.41;;;3.49;81.08
36248;BME280;22287;50.824;5.644;2023-01-27T02:55:44;101535.50;;;3.81;78.98
36248;BME280;22287;50.824;5.644;2023-01-27T02:58:11;101543.72;;;3.56;80.34
36248;BME280;22287;50.824;5.644;2023-01-27T03:00:45;101548.53;;;3.26;81.88
36248;BME280;22287;50.824;5.644;2023-01-27T03:03:12;101544.50;;;3.38;82.04
36248;BME280;22287;50.824;5.644;2023-01-27T03:05:39;101541.91;;;3.56;81.18
36248;BME280;22287;50.824;5.644;2023-01-27T03:08:06;101548.88;;;3.61;81.47
36248;BME280;22287;50.824;5.644;2023-01-27T03:10:34;101547.66;;;3.47;81.26
36248;BME280;22287;50.824;5.644;2023-01-27T03:13:01;101535.59;;;3.37;80.98
36248;BME280;22287;50.824;5.644;2023-01-27T03:15:27;101542.63;;;3.60;79.93
36248;BME280;22287;50.824;5.644;2023-01-27T03:18:13;101547.78;;;3.65;78.55
36248;BME280;22287;50.824;5.644;2023-01-27T03:20:47;101543.91;;;3.51;79.30
36248;BME280;22287;50.824;5.644;2023-01-27T03:23:16;101545.78;;;3.49;79.43
36248;BME280;22287;50.824;5.644;2023-01-27T03:25:49;101551.28;;;3.67;78.90
36248;BME280;22287;50.824;5.644;2023-01-27T03:28:16;101556.69;;;3.45;79.51
36248;BME280;22287;50.824;5.644;2023-01-27T03:31:04;101554.53;;;3.93;77.65
36248;BME280;22287;50.824;5.644;2023-01-27T03:33:39;101549.59;;;3.64;78.79
36248;BME280;22287;50.824;5.644;2023-01-27T03:36:27;101553.84;;;3.28;80.36
36248;BME280;22287;50.824;5.644;2023-01-27T03:39:13;101559.63;;;3.79;79.17
36248;BME280;22287;50.824;5.644;2023-01-27T03:41:58;101556.00;;;4.00;78.18
36248;BME280;22287;50.824;5.644;2023-01-27T03:44:45;101547.09;;;3.60;80.13
36248;BME280;22287;50.824;5.644;2023-01-27T03:47:30;101552.72;;;3.94;79.25
36248;BME280;22287;50.824;5.644;2023-01-27T03:49:57;101553.00;;;3.68;80.28
36248;BME280;22287;50.824;5.644;2023-01-27T03:52:24;101562.13;;;3.62;80.35
36248;BME280;22287;50.824;5.644;2023-01-27T03:54:51;101558.81;;;3.57;80.45
36248;BME280;22287;50.824;5.644;2023-01-27T03:57:17;101559.09;;;3.71;80.56
36248;BME280;22287;50.824;5.644;2023-01-27T03:59:44;101563.06;;;4.22;78.95
36248;BME280;22287;50.824;5.644;2023-01-27T04:02:11;101571.09;;;4.01;78.85
36248;BME280;22287;50.824;5.644;2023-01-27T04:04:56;101567.84;;;3.95;78.52
36248;BME280;22287;50.824;5.644;2023-01-27T04:07:42;101569.44;;;3.59;80.04
36248;BME280;22287;50.824;5.644;2023-01-27T04:10:09;101579.72;;;3.68;80.58
36248;BME280;22287;50.824;5.644;2023-01-27T04:12:36;101578.59;;;3.73;80.54
36248;BME280;22287;50.824;5.644;2023-01-27T04:15:03;101579.69;;;3.89;79.55
36248;BME280;22287;50.824;5.644;2023-01-27T04:17:30;101586.63;;;3.93;79.36
36248;BME280;22287;50.824;5.644;2023-01-27T04:20:04;101586.81;;;3.69;79.80
36248;BME280;22287;50.824;5.644;2023-01-27T04:22:31;101593.16;;;3.24;81.13
36248;BME280;22287;50.824;5.644;2023-01-27T04:24:58;101593.78;;;3.09;82.19
36248;BME280;22287;50.824;5.644;2023-01-27T04:27:24;101589.75;;;3.42;80.85
36248;BME280;22287;50.824;5.644;2023-01-27T04:29:52;101584.81;;;3.32;80.93
36248;BME280;22287;50.824;5.644;2023-01-27T04:32:19;101585.75;;;3.52;80.54
36248;BME280;22287;50.824;5.644;2023-01-27T04:34:46;101595.03;;;3.64;79.86
36248;BME280;22287;50.824;5.644;2023-01-27T04:37:13;101592.41;;;3.63;79.26
36248;BME280;22287;50.824;5.644;2023-01-27T04:39:39;101590.78;;;3.38;80.52
36248;BME280;22287;50.824;5.644;2023-01-27T04:42:07;101594.91;;;3.25;80.88
36248;BME280;22287;50.824;5.644;2023-01-27T04:44:34;101593.41;;;3.18;81.51
36248;BME280;22287;50.824;5.644;2023-01-27T04:47:00;101603.22;;;3.18;81.09
36248;BME280;22287;50.824;5.644;2023-01-27T04:49:27;101604.50;;;3.29;80.73
36248;BME280;22287;50.824;5.644;2023-01-27T04:51:54;101595.28;;;3.16;81.02
36248;BME280;22287;50.824;5.644;2023-01-27T04:54:21;101607.59;;;3.20;80.49
36248;BME280;22287;50.824;5.644;2023-01-27T04:56:59;101602.50;;;3.14;81.38
36248;BME280;22287;50.824;5.644;2023-01-27T04:59:26;101605.84;;;3.19;81.20
36248;BME280;22287;50.824;5.644;2023-01-27T05:01:53;101611.19;;;3.19;81.69
36248;BME280;22287;50.824;5.644;2023-01-27T05:04:20;101624.41;;;3.44;80.49
36248;BME280;22287;50.824;5.644;2023-01-27T05:06:47;101619.25;;;3.39;80.70
36248;BME280;22287;50.824;5.644;2023-01-27T05:09:14;101632.22;;;3.48;80.33
36248;BME280;22287;50.824;5.644;2023-01-27T05:11:41;101627.53;;;3.75;79.42
36248;BME280;22287;50.824;5.644;2023-01-27T05:14:07;101625.56;;;3.59;79.69
36248;BME280;22287;50.824;5.644;2023-01-27T05:16:34;101637.38;;;3.53;80.59
36248;BME280;22287;50.824;5.644;2023-01-27T05:19:03;101628.31;;;3.14;82.01
36248;BME280;22287;50.824;5.644;2023-01-27T05:21:30;101632.63;;;3.60;80.63
36248;BME280;22287;50.824;5.644;2023-01-27T05:23:57;101641.56;;;3.38;81.04
36248;BME280;22287;50.824;5.644;2023-01-27T05:26:26;101649.50;;;3.62;80.37
36248;BME280;22287;50.824;5.644;2023-01-27T05:28:55;101641.66;;;3.57;80.54
36248;BME280;22287;50.824;5.644;2023-01-27T05:31:28;101643.91;;;3.88;79.67
36248;BME280;22287;50.824;5.644;2023-01-27T05:33:58;101644.97;;;3.64;80.51
36248;BME280;22287;50.824;5.644;2023-01-27T05:36:26;101640.50;;;3.64;79.94
36248;BME280;22287;50.824;5.644;2023-01-27T05:38:54;101648.75;;;3.58;80.26
36248;BME280;22287;50.824;5.644;2023-01-27T05:41:21;101636.75;;;3.46;80.31
36248;BME280;22287;50.824;5.644;2023-01-27T05:43:52;101643.13;;;3.22;81.82
36248;BME280;22287;50.824;5.644;2023-01-27T05:46:22;101653.03;;;3.19;81.97
36248;BME280;22287;50.824;5.644;2023-01-27T05:48:52;101670.28;;;3.10;81.88
36248;BME280;22287;50.824;5.644;2023-01-27T05:51:21;101657.50;;;3.18;81.12
36248;BME280;22287;50.824;5.644;2023-01-27T05:53:49;101660.50;;;3.11;81.27
36248;BME280;22287;50.824;5.644;2023-01-27T05:56:17;101662.88;;;3.62;79.76
36248;BME280;22287;50.824;5.644;2023-01-27T05:58:44;101667.72;;;3.52;80.19
36248;BME280;22287;50.824;5.644;2023-01-27T06:01:12;101657.94;;;3.29;80.43
36248;BME280;22287;50.824;5.644;2023-01-27T06:03:40;101661.88;;;3.42;80.05
36248;BME280;22287;50.824;5.644;2023-01-27T06:06:08;101667.22;;;3.42;80.03
36248;BME280;22287;50.824;5.644;2023-01-27T06:08:36;101663.94;;;3.36;80.29
36248;BME280;22287;50.824;5.644;2023-01-27T06:11:03;101671.81;;;3.61;79.01
36248;BME280;22287;50.824;5.644;2023-01-27T06:13:31;101667.06;;;3.24;80.12
36248;BME280;22287;50.824;5.644;2023-01-27T06:16:02;101668.63;;;3.29;79.96
36248;BME280;22287;50.824;5.644;2023-01-27T06:18:29;101666.06;;;3.26;80.47
36248;BME280;22287;50.824;5.644;2023-01-27T06:20:57;101675.41;;;3.16;80.33
36248;BME280;22287;50.824;5.644;2023-01-27T06:23:25;101672.56;;;3.42;79.85
36248;BME280;22287;50.824;5.644;2023-01-27T06:25:54;101675.06;;;3.47;79.77
36248;BME280;22287;50.824;5.644;2023-01-27T06:28:21;101671.31;;;3.29;79.79
36248;BME280;22287;50.824;5.644;2023-01-27T06:30:55;101670.91;;;3.82;78.62
36248;BME280;22287;50.824;5.644;2023-01-27T06:33:22;101669.47;;;3.95;78.05
36248;BME280;22287;50.824;5.644;2023-01-27T06:35:49;101676.03;;;4.08;77.31
36248;BME280;22287;50.824;5.644;2023-01-27T06:38:16;101672.28;;;3.92;77.87
36248;BME280;22287;50.824;5.644;2023-01-27T06:40:43;101680.75;;;3.60;78.48
36248;BME280;22287;50.824;5.644;2023-01-27T06:43:11;101674.22;;;3.67;78.85
36248;BME280;22287;50.824;5.644;2023-01-27T06:45:39;101670.53;;;3.91;77.57
36248;BME280;22287;50.824;5.644;2023-01-27T06:48:06;101679.22;;;3.96;76.77
36248;BME280;22287;50.824;5.644;2023-01-27T06:50:35;101677.41;;;3.96;76.87
36248;BME280;22287;50.824;5.644;2023-01-27T06:53:04;101674.19;;;3.46;79.13
36248;BME280;22287;50.824;5.644;2023-01-27T06:55:32;101674.19;;;3.46;79.91
36248;BME280;22287;50.824;5.644;2023-01-27T06:58:01;101679.47;;;3.90;78.21
36248;BME280;22287;50.824;5.644;2023-01-27T07:00:28;101675.28;;;3.41;79.88
36248;BME280;22287;50.824;5.644;2023-01-27T07:02:55;101686.78;;;3.43;80.45
36248;BME280;22287;50.824;5.644;2023-01-27T07:05:22;101695.38;;;3.73;79.03
36248;BME280;22287;50.824;5.644;2023-01-27T07:07:50;101682.38;;;3.64;78.84
36248;BME280;22287;50.824;5.644;2023-01-27T07:10:17;101691.19;;;3.66;79.91
36248;BME280;22287;50.824;5.644;2023-01-27T07:12:44;101686.59;;;3.69;79.29
36248;BME280;22287;50.824;5.644;2023-01-27T07:15:11;101700.41;;;3.59;79.98
36248;BME280;22287;50.824;5.644;2023-01-27T07:17:38;101703.75;;;3.20;81.13
36248;BME280;22287;50.824;5.644;2023-01-27T07:20:07;101711.47;;;3.05;81.97
36248;BME280;22287;50.824;5.644;2023-01-27T07:22:35;101703.44;;;3.28;81.49
36248;BME280;22287;50.824;5.644;2023-01-27T07:25:03;101707.97;;;3.26;81.59
36248;BME280;22287;50.824;5.644;2023-01-27T07:27:30;101711.38;;;3.29;81.56
36248;BME280;22287;50.824;5.644;2023-01-27T07:29:57;101700.66;;;3.52;80.16
36248;BME280;22287;50.824;5.644;2023-01-27T07:32:24;101714.56;;;3.39;81.16
36248;BME280;22287;50.824;5.644;2023-01-27T07:34:53;101709.34;;;3.58;80.70
36248;BME280;22287;50.824;5.644;2023-01-27T07:37:20;101707.22;;;3.44;80.76
36248;BME280;22287;50.824;5.644;2023-01-27T07:39:47;101710.81;;;3.65;80.83
36248;BME280;22287;50.824;5.644;2023-01-27T07:42:14;101715.56;;;3.80;80.20
36248;BME280;22287;50.824;5.644;2023-01-27T07:44:40;101719.41;;;3.94;78.98
36248;BME280;22287;50.824;5.644;2023-01-27T07:47:07;101710.47;;;3.74;80.16
36248;BME280;22287;50.824;5.644;2023-01-27T07:49:34;101708.59;;;3.76;79.83
36248;BME280;22287;50.824;5.644;2023-01-27T07:52:01;101713.25;;;3.71;80.24
36248;BME280;22287;50.824;5.644;2023-01-27T07:54:28;101706.81;;;3.54;81.65
36248;BME280;22287;50.824;5.644;2023-01-27T07:56:55;101709.72;;;3.70;80.59
36248;BME280;22287;50.824;5.644;2023-01-27T07:59:21;101715.56;;;3.36;81.58
36248;BME280;22287;50.824;5.644;2023-01-27T08:01:48;101710.47;;;3.74;80.21
36248;BME280;22287;50.824;5.644;2023-01-27T08:04:15;101709.34;;;3.58;80.72
36248;BME280;22287;50.824;5.644;2023-01-27T08:06:43;101709.47;;;3.76;80.51
36248;BME280;22287;50.824;5.644;2023-01-27T08:09:10;101711.16;;;3.57;80.52
36248;BME280;22287;50.824;5.644;2023-01-27T08:11:36;101717.38;;;3.13;82.24
36248;BME280;22287;50.824;5.644;2023-01-27T08:14:03;101727.06;;;3.38;81.83
36248;BME280;22287;50.824;5.644;2023-01-27T08:16:30;101718.41;;;3.53;81.78
36248;BME280;22287;50.824;5.644;2023-01-27T08:18:57;101728.63;;;3.44;81.65
36248;BME280;22287;50.824;5.644;2023-01-27T08:21:23;101725.03;;;3.45;81.88
36248;BME280;22287;50.824;5.644;2023-01-27T08:23:52;101719.13;;;3.59;80.65
36248;BME280;22287;50.824;5.644;2023-01-27T08:26:19;101725.47;;;3.78;80.21
36248;BME280;22287;50.824;5.644;2023-01-27T08:28:46;101727.22;;;3.99;80.01
36248;BME280;22287;50.824;5.644;2023-01-27T08:31:15;101732.16;;;3.44;81.66
36248;BME280;22287;50.824;5.644;2023-01-27T08:33:56;101731.09;;;3.70;80.50
36248;BME280;22287;50.824;5.644;2023-01-27T08:36:39;101731.34;;;3.86;80.36
36248;BME280;22287;50.824;5.644;2023-01-27T08:39:08;101734.41;;;3.77;80.40
36248;BME280;22287;50.824;5.644;2023-01-27T08:41:35;101727.16;;;3.35;82.08
36248;BME280;22287;50.824;5.644;2023-01-27T08:44:02;101734.41;;;3.77;80.90
36248;BME280;22287;50.824;5.644;2023-01-27T08:46:29;101736.94;;;3.36;82.28
36248;BME280;22287;50.824;5.644;2023-01-27T08:48:56;101723.50;;;3.60;81.12
36248;BME280;22287;50.824;5.644;2023-01-27T08:51:23;101725.81;;;3.47;82.11
36248;BME280;22287;50.824;5.644;2023-01-27T08:53:50;101736.41;;;3.50;81.58
36248;BME280;22287;50.824;5.644;2023-01-27T08:56:17;101736.00;;;3.37;82.70
36248;BME280;22287;50.824;5.644;2023-01-27T08:58:44;101729.97;;;3.76;81.22
36248;BME280;22287;50.824;5.644;2023-01-27T09:01:14;101720.16;;;3.54;81.95
36248;BME280;22287;50.824;5.644;2023-01-27T09:03:41;101727.69;;;3.88;80.38
36248;BME280;22287;50.824;5.644;2023-01-27T09:06:10;101740.59;;;3.99;80.61
36248;BME280;22287;50.824;5.644;2023-01-27T09:08:39;101740.69;;;3.97;80.13
36248;BME280;22287;50.824;5.644;2023-01-27T09:11:14;101737.44;;;3.68;81.19
36248;BME280;22287;50.824;5.644;2023-01-27T09:13:42;101740.31;;;3.63;81.83
36248;BME280;22287;50.824;5.644;2023-01-27T09:16:09;101738.59;;;4.04;79.90
36248;BME280;22287;50.824;5.644;2023-01-27T09:18:36;101750.81;;;4.11;79.17
36248;BME280;22287;50.824;5.644;2023-01-27T09:21:04;101743.19;;;4.42;78.51
36248;BME280;22287;50.824;5.644;2023-01-27T09:23:32;101754.94;;;4.18;78.71
36248;BME280;22287;50.824;5.644;2023-01-27T09:25:59;101766.00;;;3.67;80.78
36248;BME280;22287;50.824;5.644;2023-01-27T09:28:26;101756.19;;;3.89;80.21
36248;BME280;22287;50.824;5.644;2023-01-27T09:30:56;101753.75;;;3.83;80.76
36248;BME280;22287;50.824;5.644;2023-01-27T09:33:24;101759.94;;;4.05;79.92
36248;BME280;22287;50.824;5.644;2023-01-27T09:36:18;101754.19;;;4.14;79.14
36248;BME280;22287;50.824;5.644;2023-01-27T09:39:03;101758.13;;;4.06;79.27
36248;BME280;22287;50.824;5.644;2023-01-27T09:44:28;101762.19;;;3.94;80.05
36248;BME280;22287;50.824;5.644;2023-01-27T09:55:17;101771.38;;;4.09;79.16
36248;BME280;22287;50.824;5.644;2023-01-27T09:57:55;101775.88;;;4.08;79.54
36248;BME280;22287;50.824;5.644;2023-01-27T10:12:17;101775.13;;;3.83;81.51
36248;BME280;22287;50.824;5.644;2023-01-27T10:14:48;101782.16;;;3.86;80.83
36248;BME280;22287;50.824;5.644;2023-01-27T10:27:59;101776.28;;;3.98;80.48
36248;BME280;22287;50.824;5.644;2023-01-27T10:30:36;101782.91;;;4.31;79.53
36248;BME280;22287;50.824;5.644;2023-01-27T10:47:37;101778.97;;;4.20;80.43
36248;BME280;22287;50.824;5.644;2023-01-27T10:50:16;101777.84;;;4.03;81.80
36248;BME280;22287;50.824;5.644;2023-01-27T10:52:53;101774.59;;;4.17;80.64
36248;BME280;22287;50.824;5.644;2023-01-27T10:58:15;101772.22;;;4.31;80.10
36248;BME280;22287;50.824;5.644;2023-01-27T11:01:00;101764.81;;;4.58;79.20
36248;BME280;22287;50.824;5.644;2023-01-27T11:04:01;101771.09;;;4.37;80.05
36248;BME280;22287;50.824;5.644;2023-01-27T11:06:37;101764.88;;;4.36;79.66
36248;BME280;22287;50.824;5.644;2023-01-27T11:09:28;101761.72;;;4.67;79.01
36248;BME280;22287;50.824;5.644;2023-01-27T11:12:03;101756.56;;;4.22;79.49
36248;BME280;22287;50.824;5.644;2023-01-27T11:14:40;101763.09;;;4.15;80.58
36248;BME280;22287;50.824;5.644;2023-01-27T11:17:29;101755.53;;;4.66;78.60
36248;BME280;22287;50.824;5.644;2023-01-27T11:20:05;101750.22;;;4.65;77.79
36248;BME280;22287;50.824;5.644;2023-01-27T11:22:54;101759.66;;;4.53;78.46
36248;BME280;22287;50.824;5.644;2023-01-27T11:28:11;101758.97;;;4.28;79.95
36248;BME280;22287;50.824;5.644;2023-01-27T11:31:10;101750.16;;;4.66;78.28
36248;BME280;22287;50.824;5.644;2023-01-27T11:33:48;101743.31;;;4.39;79.39
36248;BME280;22287;50.824;5.644;2023-01-27T11:36:17;101738.66;;;4.44;79.75
36248;BME280;22287;50.824;5.644;2023-01-27T11:38:44;101743.06;;;4.45;78.92
36248;BME280;22287;50.824;5.644;2023-01-27T11:41:11;101739.78;;;4.59;79.33
36248;BME280;22287;50.824;5.644;2023-01-27T11:43:38;101746.41;;;4.70;78.32
36248;BME280;22287;50.824;5.644;2023-01-27T11:46:07;101742.09;;;4.87;77.15
36248;BME280;22287;50.824;5.644;2023-01-27T11:48:43;101740.13;;;4.71;78.30
36248;BME280;22287;50.824;5.644;2023-01-27T11:51:23;101749.31;;;5.05;77.38
36248;BME280;22287;50.824;5.644;2023-01-27T11:54:19;101745.78;;;4.64;77.76
36248;BME280;22287;50.824;5.644;2023-01-27T11:56:48;101742.66;;;4.34;79.04
36248;BME280;22287;50.824;5.644;2023-01-27T11:59:22;101743.88;;;4.47;78.53
36248;BME280;22287;50.824;5.644;2023-01-27T12:01:57;101741.19;;;4.47;78.81
36248;BME280;22287;50.824;5.644;2023-01-27T12:04:43;101741.22;;;4.26;80.17
36248;BME280;22287;50.824;5.644;2023-01-27T12:07:29;101745.78;;;4.64;79.07
36248;BME280;22287;50.824;5.644;2023-01-27T12:10:00;101743.97;;;4.85;77.66
36248;BME280;22287;50.824;5.644;2023-01-27T12:12:27;101742.72;;;4.73;78.31
36248;BME280;22287;50.824;5.644;2023-01-27T12:19:56;101739.59;;;5.02;77.81
36248;BME280;22287;50.824;5.644;2023-01-27T12:22:26;101731.69;;;4.40;79.40
36248;BME280;22287;50.824;5.644;2023-01-27T12:25:00;101732.88;;;4.73;78.88
36248;BME280;22287;50.824;5.644;2023-01-27T12:27:32;101731.28;;;4.49;79.53
36248;BME280;22287;50.824;5.644;2023-01-27T12:30:07;101735.44;;;4.36;79.77
36248;BME280;22287;50.824;5.644;2023-01-27T12:32:45;101721.28;;;4.73;78.58
36248;BME280;22287;50.824;5.644;2023-01-27T12:35:24;101730.47;;;4.67;78.97
36248;BME280;22287;50.824;5.644;2023-01-27T12:37:58;101728.22;;;4.58;78.38
36248;BME280;22287;50.824;5.644;2023-01-27T12:40:27;101725.16;;;4.47;79.63
36248;BME280;22287;50.824;5.644;2023-01-27T12:45:33;101708.25;;;4.65;78.72
36248;BME280;22287;50.824;5.644;2023-01-27T12:58:56;101707.41;;;4.84;79.60
36248;BME280;22287;50.824;5.644;2023-01-27T13:01:38;101700.06;;;5.07;78.24
36248;BME280;22287;50.824;5.644;2023-01-27T13:04:19;101694.38;;;4.95;78.57
36248;BME280;22287;50.824;5.644;2023-01-27T13:06:53;101702.09;;;5.21;77.22
36248;BME280;22287;50.824;5.644;2023-01-27T13:11:54;101694.16;;;4.42;80.37
36248;BME280;22287;50.824;5.644;2023-01-27T13:14:22;101698.28;;;4.49;80.70
36248;BME280;22287;50.824;5.644;2023-01-27T13:16:53;101699.84;;;4.54;79.31
36248;BME280;22287;50.824;5.644;2023-01-27T13:19:29;101697.94;;;4.56;80.01
36248;BME280;22287;50.824;5.644;2023-01-27T13:21:59;101697.63;;;4.44;80.53
36248;BME280;22287;50.824;5.644;2023-01-27T13:24:41;101691.53;;;4.40;80.80
36248;BME280;22287;50.824;5.644;2023-01-27T13:27:23;101697.69;;;4.42;80.85
36248;BME280;22287;50.824;5.644;2023-01-27T13:30:02;101695.41;;;4.53;79.83
36248;BME280;22287;50.824;5.644;2023-01-27T13:32:35;101705.88;;;4.78;78.95
36248;BME280;22287;50.824;5.644;2023-01-27T13:38:07;101704.31;;;4.54;79.81
36248;BME280;22287;50.824;5.644;2023-01-27T13:40:41;101710.69;;;4.90;78.72
36248;BME280;22287;50.824;5.644;2023-01-27T13:46:20;101715.78;;;4.76;77.91
36248;BME280;22287;50.824;5.644;2023-01-27T13:49:03;101721.91;;;4.39;79.38
36248;BME280;22287;50.824;5.644;2023-01-27T13:51:32;101722.19;;;4.33;80.17
36248;BME280;22287;50.824;5.644;2023-01-27T13:54:01;101720.59;;;4.49;79.38
36248;BME280;22287;50.824;5.644;2023-01-27T13:56:54;101720.25;;;4.57;79.13
36248;BME280;22287;50.824;5.644;2023-01-27T14:05:03;101726.13;;;4.45;79.78
36248;BME280;22287;50.824;5.644;2023-01-27T14:18:30;101731.47;;;4.45;79.13
36248;BME280;22287;50.824;5.644;2023-01-27T14:24:38;101742.91;;;4.48;79.44
36248;BME280;22287;50.824;5.644;2023-01-27T14:27:13;101740.06;;;4.53;78.88
36248;BME280;22287;50.824;5.644;2023-01-27T14:30:11;101742.06;;;5.07;77.31
36248;BME280;22287;50.824;5.644;2023-01-27T14:35:44;101741.50;;;5.19;76.75
36248;BME280;22287;50.824;5.644;2023-01-27T14:41:39;101750.97;;;4.68;78.76
36248;BME280;22287;50.824;5.644;2023-01-27T14:44:29;101748.31;;;4.67;78.62
36248;BME280;22287;50.824;5.644;2023-01-27T14:47:22;101749.50;;;4.41;79.32
36248;BME280;22287;50.824;5.644;2023-01-27T14:50:16;101754.97;;;4.97;78.05
36248;BME280;22287;50.824;5.644;2023-01-27T14:52:44;101745.19;;;4.78;77.59
36248;BME280;22287;50.824;5.644;2023-01-27T15:03:56;101768.44;;;4.57;78.74
36248;BME280;22287;50.824;5.644;2023-01-27T15:07:02;101755.69;;;4.62;77.51
36248;BME280;22287;50.824;5.644;2023-01-27T15:26:23;101787.09;;;4.79;76.60
36248;BME280;22287;50.824;5.644;2023-01-27T15:28:50;101785.00;;;4.45;77.83
36248;BME280;22287;50.824;5.644;2023-01-27T15:31:31;101788.84;;;4.59;76.48
36248;BME280;22287;50.824;5.644;2023-01-27T15:34:21;101794.03;;;5.03;75.56
36248;BME280;22287;50.824;5.644;2023-01-27T15:37:12;101805.31;;;5.29;74.07
36248;BME280;22287;50.824;5.644;2023-01-27T15:50:37;101816.34;;;4.63;76.78
36248;BME280;22287;50.824;5.644;2023-01-27T15:53:15;101811.16;;;5.19;74.78
36248;BME280;22287;50.824;5.644;2023-01-27T15:55:50;101818.00;;;4.45;76.99
36248;BME280;22287;50.824;5.644;2023-01-27T15:58:32;101820.44;;;4.71;76.54